Pagina principale
METAR-TAF:

METAR-TAF

Aeroporti :

Aeroporto di Gran Canaria

Gran Canaria, Spagna

latitudine: 27-56N, longitudine: 015-23W, altezza: 23 m

Osservazione

Il bollettino è stato emesso 28 minuti fa, alle 00:30 UTC
Vento 22 kt da nord
Temperature 23°C
Umidità 73%
Pressione 1020 hPa
Visibilità 10 km o più
Nuvoloso ad un'altezza di 2000 ft

METAR: GCLP 160030Z 01022KT 9999 BKN020 23/18 Q1020 NOSIG

Ora: 01:58 (00:58 UTC)

Previsione

Il bollettino è stato emesso 4 ore e 58 minuti fa, alle 20:00 UTC
Previsione valida dal 15 alle 21 UTC al 16 alle 21 UTC
Vento 22 kt da nord
Visibilità 10 km o più
Nubi sparse ad un'altezza di 2000 ft
Probabilità 30% :
Temporaneamente
dal 15 alle 21 UTC al 16 alle 02 UTC
Vento 24 kt da nord con raffiche fino a 34 kt

TAF: GCLP 152000Z 1521/1621 36022KT 9999 SCT020 TX26/1614Z TN21/1605Z PROB30 TEMPO 1521/1602 01024G34KT

Osservazioni e previsioni meteorologiche di più di 4000 aeroporti (messaggi METAR e TAF).

Le stazioni disponibili sono rappresentate dai dischi gialli e rossi sulla carta.

Puntare il mouse per vedere il nome della stazione.

Clicca sopra per visualizzare le osservazioni e previsioni meteorologiche.

Per cambiare la mappa : fare clic sui pulsanti verdi con una croce nera per ingrandire, il pulsante verde con un trattino per diminuire, o sulla freccia verde per le mappe adiacenti.


METAR-TAF: